createdAt,value
2019-03-29T00:00:38.260Z,99922.27
2019-03-29T00:01:40.926Z,99919.74
2019-03-29T00:02:43.504Z,99916.74
2019-03-29T00:03:45.336Z,99917.25
2019-03-29T00:04:47.246Z,99914.22
2019-03-29T00:05:49.307Z,99914.95
2019-03-29T00:06:51.564Z,99914.95
2019-03-29T00:07:53.566Z,99915.70
2019-03-29T00:08:55.742Z,99914.86
2019-03-29T00:09:57.850Z,99910.31
2019-03-29T00:10:59.999Z,99917.42
2019-03-29T00:12:02.123Z,99915.41
2019-03-29T00:13:05.040Z,99910.09
2019-03-29T00:14:07.390Z,99914.20
2019-03-29T00:15:09.952Z,99914.70
2019-03-29T00:16:11.966Z,99909.87
2019-03-29T00:17:14.163Z,99915.31
2019-03-29T00:18:16.091Z,99912.66
2019-03-29T00:19:18.253Z,99913.16
2019-03-29T00:20:20.436Z,99915.09
2019-03-29T00:21:22.512Z,99909.56
2019-03-29T00:22:24.758Z,99903.58
2019-03-29T00:23:27.209Z,99904.20
2019-03-29T00:24:29.297Z,99907.33
2019-03-29T00:25:31.468Z,99903.83
2019-03-29T00:26:33.559Z,99896.98
2019-03-29T00:27:35.763Z,99895.47
2019-03-29T00:28:37.948Z,99897.40
2019-03-29T00:29:40.451Z,99900.55
2019-03-29T00:30:42.259Z,99899.35
2019-03-29T00:31:44.591Z,99902.22
2019-03-29T00:32:46.597Z,99899.83
2019-03-29T00:33:49.383Z,99898.16
2019-03-29T00:34:52.301Z,99907.30
2019-03-29T00:35:54.473Z,99900.94
2019-03-29T00:36:56.307Z,99901.56
2019-03-29T00:37:58.735Z,99898.22
2019-03-29T00:39:01.167Z,99899.33
2019-03-29T00:40:06.320Z,99897.27
2019-03-29T00:41:09.161Z,99903.20
2019-03-29T00:42:11.241Z,99901.31
2019-03-29T00:43:13.036Z,99901.31
2019-03-29T00:44:15.197Z,99900.46
2019-03-29T00:45:18.988Z,99896.61
2019-03-29T00:46:21.340Z,99894.94
2019-03-29T00:47:23.600Z,99895.28
2019-03-29T00:48:25.425Z,99886.64
2019-03-29T00:49:28.549Z,99890.96
2019-03-29T00:50:31.075Z,99890.62
2019-03-29T00:51:33.064Z,99893.61
2019-03-29T00:52:34.784Z,99890.27
2019-03-29T00:53:36.761Z,99890.27
2019-03-29T00:54:38.931Z,99899.89
2019-03-29T00:55:41.157Z,99897.71
2019-03-29T00:56:43.451Z,99901.22
2019-03-29T00:57:45.181Z,99902.07
2019-03-29T00:58:48.752Z,99902.20
2019-03-29T00:59:50.862Z,99902.66
2019-03-29T01:00:52.763Z,99907.97
2019-03-29T01:01:54.918Z,99912.22
2019-03-29T01:02:56.964Z,99908.50
2019-03-29T01:03:58.641Z,99908.38
2019-03-29T01:05:00.848Z,99898.75
2019-03-29T01:06:04.357Z,99899.45
2019-03-29T01:07:06.476Z,99897.14
2019-03-29T01:08:10.448Z,99899.45
2019-03-29T01:09:14.291Z,99898.34
2019-03-29T01:10:16.490Z,99889.58
2019-03-29T01:11:18.643Z,99887.52
2019-03-29T01:12:20.843Z,99888.25
2019-03-29T01:13:23.086Z,99891.84
2019-03-29T01:14:25.318Z,99893.05
2019-03-29T01:15:27.479Z,99894.15
2019-03-29T01:16:30.004Z,99895.47
2019-03-29T01:17:32.099Z,99894.27
2019-03-29T01:18:33.803Z,99890.45
2019-03-29T01:19:35.879Z,99893.23
2019-03-29T01:20:39.213Z,99894.20
2019-03-29T01:21:41.523Z,99892.16
2019-03-29T01:22:43.856Z,99892.66
2019-03-29T01:23:45.900Z,99901.59
2019-03-29T01:24:47.697Z,99902.91
2019-03-29T01:25:50.207Z,99903.16
2019-03-29T01:26:53.093Z,99898.33
2019-03-29T01:27:55.405Z,99900.16
2019-03-29T01:28:57.389Z,99896.19
2019-03-29T01:29:59.537Z,99900.16
2019-03-29T01:31:01.358Z,99891.99
2019-03-29T01:32:04.877Z,99883.31
2019-03-29T01:33:06.935Z,99888.73
2019-03-29T01:34:08.815Z,99891.27
2019-03-29T01:35:11.566Z,99895.11
2019-03-29T01:36:13.766Z,99893.79
2019-03-29T01:37:15.951Z,99894.52
2019-03-29T01:38:22.033Z,99888.72
2019-03-29T01:39:21.700Z,99885.09
2019-03-29T01:40:23.337Z,99894.73
2019-03-29T01:41:26.261Z,99888.59
2019-03-29T01:42:29.155Z,99892.56
2019-03-29T01:43:31.339Z,99896.29
2019-03-29T01:44:34.735Z,99893.13
2019-03-29T01:45:36.884Z,99891.81
2019-03-29T01:46:39.037Z,99886.86
2019-03-29T01:47:41.207Z,99893.48
2019-03-29T01:48:43.076Z,99887.48
2019-03-29T01:49:45.193Z,99894.96
2019-03-29T01:50:47.427Z,99895.91
2019-03-29T01:51:49.386Z,99902.53
2019-03-29T01:52:51.452Z,99902.69
2019-03-29T01:53:53.683Z,99905.80
2019-03-29T01:54:57.017Z,99915.94
2019-03-29T01:55:59.588Z,99907.13
2019-03-29T01:57:01.858Z,99907.61
2019-03-29T01:58:04.872Z,99913.06
2019-03-29T01:59:06.930Z,99912.84
2019-03-29T02:00:09.508Z,99917.25
2019-03-29T02:01:11.676Z,99915.70
2019-03-29T02:02:13.831Z,99913.68
2019-03-29T02:03:15.945Z,99915.13
2019-03-29T02:04:18.526Z,99919.45
2019-03-29T02:05:20.478Z,99917.78
2019-03-29T02:06:22.482Z,99916.80
2019-03-29T02:07:24.803Z,99922.09
2019-03-29T02:08:35.583Z,99919.95
2019-03-29T02:09:31.014Z,99923.92
2019-03-29T02:10:33.590Z,99918.63
2019-03-29T02:11:35.738Z,99921.75
2019-03-29T02:12:37.894Z,99917.78
2019-03-29T02:13:40.234Z,99917.78
2019-03-29T02:14:42.362Z,99918.25
2019-03-29T02:15:44.794Z,99914.16
2019-03-29T02:16:47.030Z,99920.18
2019-03-29T02:17:49.120Z,99917.37
2019-03-29T02:18:50.901Z,99913.91
2019-03-29T02:19:53.216Z,99913.55
2019-03-29T02:20:56.560Z,99914.50
2019-03-29T02:21:58.314Z,99912.58
2019-03-29T02:23:00.400Z,99914.88
2019-03-29T02:24:02.806Z,99914.50
2019-03-29T02:25:06.724Z,99919.45
2019-03-29T02:26:09.193Z,99914.16
2019-03-29T02:27:11.291Z,99915.25
2019-03-29T02:28:13.440Z,99917.42
2019-03-29T02:29:15.911Z,99918.41
2019-03-29T02:30:18.007Z,99913.70
2019-03-29T02:31:20.384Z,99918.65
2019-03-29T02:32:24.827Z,99916.13
2019-03-29T02:33:27.372Z,99922.39
2019-03-29T02:34:29.207Z,99919.28
2019-03-29T02:35:31.325Z,99924.82
2019-03-29T02:36:34.667Z,99921.34
2019-03-29T02:37:37.305Z,99926.64
2019-03-29T02:38:54.125Z,99923.14
2019-03-29T02:39:44.048Z,99924.34
2019-03-29T02:40:45.843Z,99925.16
2019-03-29T02:41:48.009Z,99929.77
2019-03-29T02:42:50.107Z,99928.79
2019-03-29T02:43:52.237Z,99922.80
2019-03-29T02:44:54.603Z,99922.80
2019-03-29T02:45:57.552Z,99919.80
2019-03-29T02:46:59.999Z,99916.65
2019-03-29T02:48:02.155Z,99922.80
2019-03-29T02:49:05.085Z,99922.30
2019-03-29T02:50:09.147Z,99919.52
2019-03-29T02:51:11.588Z,99924.47
2019-03-29T02:52:13.788Z,99928.31
2019-03-29T02:53:16.201Z,99925.80
2019-03-29T02:54:18.083Z,99925.80
2019-03-29T02:55:19.805Z,99923.14
2019-03-29T02:56:21.878Z,99922.30
2019-03-29T02:57:24.015Z,99917.63
2019-03-29T02:58:26.310Z,99911.86
2019-03-29T02:59:28.389Z,99910.02
2019-03-29T03:00:30.408Z,99911.23
2019-03-29T03:01:32.686Z,99911.23
2019-03-29T03:02:34.973Z,99908.70
2019-03-29T03:03:37.008Z,99903.05
2019-03-29T03:04:39.073Z,99903.05
2019-03-29T03:05:41.308Z,99899.59
2019-03-29T03:06:43.171Z,99906.20
2019-03-29T03:07:45.446Z,99902.23
2019-03-29T03:08:47.701Z,99902.70
2019-03-29T03:09:51.051Z,99896.20
2019-03-29T03:10:53.199Z,99901.03
2019-03-29T03:11:55.263Z,99907.78
2019-03-29T03:12:58.666Z,99908.02
2019-03-29T03:14:01.041Z,99904.67
2019-03-29T03:15:07.698Z,99902.15
2019-03-29T03:16:09.510Z,99906.00
2019-03-29T03:17:13.237Z,99912.27
2019-03-29T03:18:15.485Z,99907.32
2019-03-29T03:19:17.578Z,99912.97
2019-03-29T03:20:19.784Z,99911.64
2019-03-29T03:21:21.519Z,99918.48
2019-03-29T03:22:23.678Z,99920.55
2019-03-29T03:23:26.333Z,99924.52
2019-03-29T03:24:27.995Z,99920.05
2019-03-29T03:25:31.006Z,99924.36
2019-03-29T03:26:33.513Z,99923.77
2019-03-29T03:27:35.742Z,99926.54
2019-03-29T03:28:38.419Z,99921.47
2019-03-29T03:29:40.489Z,99923.27
2019-03-29T03:30:42.293Z,99929.06
2019-03-29T03:31:44.611Z,99922.45
2019-03-29T03:32:47.198Z,99927.47
2019-03-29T03:33:49.296Z,99926.77
2019-03-29T03:34:51.497Z,99928.79
2019-03-29T03:35:53.783Z,99933.11
2019-03-29T03:36:56.123Z,99933.04
2019-03-29T03:37:58.760Z,99931.44
2019-03-29T03:39:04.038Z,99931.31
2019-03-29T03:40:07.677Z,99932.17
2019-03-29T03:41:09.766Z,99931.79
2019-03-29T03:42:12.814Z,99930.84
2019-03-29T03:43:14.802Z,99929.14
2019-03-29T03:44:17.063Z,99931.09
2019-03-29T03:45:19.266Z,99933.50
2019-03-29T03:46:22.301Z,99938.06
2019-03-29T03:47:24.342Z,99933.27
2019-03-29T03:48:26.383Z,99938.06
2019-03-29T03:49:28.136Z,99943.48
2019-03-29T03:50:39.005Z,99937.36
2019-03-29T03:51:42.601Z,99938.69
2019-03-29T03:52:44.650Z,99936.66
2019-03-29T03:53:46.989Z,99937.61
2019-03-29T03:54:48.985Z,99935.81
2019-03-29T03:55:52.246Z,99934.14
2019-03-29T03:56:55.142Z,99935.81
2019-03-29T03:57:58.639Z,99931.61
2019-03-29T03:59:01.359Z,99938.93
2019-03-29T04:00:07.217Z,99935.11
2019-03-29T04:01:09.268Z,99936.56
2019-03-29T04:02:11.323Z,99941.85
2019-03-29T04:03:13.409Z,99936.68
2019-03-29T04:04:15.347Z,99938.35
2019-03-29T04:05:17.447Z,99937.16
2019-03-29T04:06:19.507Z,99939.45
2019-03-29T04:07:21.628Z,99933.56
2019-03-29T04:08:24.467Z,99931.50
2019-03-29T04:09:26.835Z,99926.20
2019-03-29T04:10:28.499Z,99932.48
2019-03-29T04:11:30.788Z,99924.88
2019-03-29T04:12:32.904Z,99926.55
2019-03-29T04:13:34.973Z,99928.73
2019-03-29T04:14:37.109Z,99931.50
2019-03-29T04:15:38.884Z,99929.20
2019-03-29T04:16:41.037Z,99930.53
2019-03-29T04:17:43.137Z,99931.27
2019-03-29T04:18:46.125Z,99941.98
2019-03-29T04:19:48.345Z,99938.86
2019-03-29T04:20:50.983Z,99938.98
2019-03-29T04:21:53.347Z,99937.88
2019-03-29T04:22:55.307Z,99937.66
2019-03-29T04:23:57.604Z,99933.17
2019-03-29T04:24:59.617Z,99934.16
2019-03-29T04:26:01.917Z,99922.73
2019-03-29T04:27:04.021Z,99923.91
2019-03-29T04:28:06.305Z,99926.31
2019-03-29T04:29:08.577Z,99922.59
2019-03-29T04:30:10.955Z,99923.91
2019-03-29T04:31:15.532Z,99927.98
2019-03-29T04:32:17.624Z,99925.34
2019-03-29T04:33:19.833Z,99926.66
2019-03-29T04:34:21.809Z,99924.29
2019-03-29T04:35:24.773Z,99916.80
2019-03-29T04:36:26.648Z,99918.83
2019-03-29T04:37:30.750Z,99918.70
2019-03-29T04:38:33.582Z,99912.15
2019-03-29T04:39:35.750Z,99916.70
2019-03-29T04:40:37.735Z,99912.83
2019-03-29T04:41:39.870Z,99908.58
2019-03-29T04:42:42.512Z,99912.83
2019-03-29T04:43:44.714Z,99906.20
2019-03-29T04:44:46.742Z,99907.25
2019-03-29T04:45:48.552Z,99907.25
2019-03-29T04:46:50.973Z,99905.41
2019-03-29T04:47:52.971Z,99906.26
2019-03-29T04:48:55.148Z,99902.75
2019-03-29T04:49:57.530Z,99905.86
2019-03-29T04:50:59.698Z,99910.17
2019-03-29T04:52:01.404Z,99903.20
2019-03-29T04:53:03.942Z,99904.75
2019-03-29T04:54:05.945Z,99899.80
2019-03-29T04:55:09.270Z,99906.30
2019-03-29T04:56:11.652Z,99903.31
2019-03-29T04:57:13.808Z,99905.95
2019-03-29T04:58:17.366Z,99907.28
2019-03-29T04:59:19.529Z,99907.53
2019-03-29T05:00:21.538Z,99908.70
2019-03-29T05:01:23.643Z,99908.86
2019-03-29T05:02:25.869Z,99911.61
2019-03-29T05:03:28.149Z,99918.95
2019-03-29T05:04:30.117Z,99921.60
2019-03-29T05:05:32.248Z,99928.95
2019-03-29T05:06:33.998Z,99931.10
2019-03-29T05:07:37.243Z,99927.63
2019-03-29T05:08:39.578Z,99936.05
2019-03-29T05:09:42.090Z,99934.38
2019-03-29T05:10:44.209Z,99931.61
2019-03-29T05:11:46.414Z,99931.95
2019-03-29T05:12:48.084Z,99928.80
2019-03-29T05:13:50.253Z,99935.30
2019-03-29T05:14:52.323Z,99933.63
2019-03-29T05:15:54.151Z,99935.65
2019-03-29T05:16:57.020Z,99930.98
2019-03-29T05:17:59.093Z,99927.86
2019-03-29T05:19:01.142Z,99927.00
2019-03-29T05:20:05.496Z,99925.20
2019-03-29T05:21:07.485Z,99928.20
2019-03-29T05:22:09.258Z,99925.20
2019-03-29T05:23:11.260Z,99927.00
2019-03-29T05:24:13.317Z,99931.20
2019-03-29T05:25:15.163Z,99929.30
2019-03-29T05:26:17.270Z,99934.55
2019-03-29T05:27:18.985Z,99930.73
2019-03-29T05:28:21.203Z,99926.75
2019-03-29T05:29:23.399Z,99930.35
2019-03-29T05:30:25.119Z,99929.88
2019-03-29T05:31:27.112Z,99926.52
2019-03-29T05:32:29.226Z,99930.23
2019-03-29T05:33:33.068Z,99926.75
2019-03-29T05:34:35.210Z,99926.66
2019-03-29T05:35:37.410Z,99932.41
2019-03-29T05:36:41.314Z,99930.10
2019-03-29T05:37:43.522Z,99930.20
2019-03-29T05:38:46.810Z,99939.09
2019-03-29T05:39:48.800Z,99943.30
2019-03-29T05:40:50.887Z,99938.50
2019-03-29T05:41:53.124Z,99940.92
2019-03-29T05:42:55.098Z,99934.77
2019-03-29T05:43:57.214Z,99930.45
2019-03-29T05:44:59.434Z,99930.67
2019-03-29T05:46:01.116Z,99932.13
2019-03-29T05:47:03.258Z,99932.13
2019-03-29T05:48:05.430Z,99921.12
2019-03-29T05:49:09.310Z,99920.61
2019-03-29T05:50:11.820Z,99929.25
2019-03-29T05:51:13.670Z,99939.48
2019-03-29T05:52:15.426Z,99934.88
2019-03-29T05:53:17.545Z,99931.53
2019-03-29T05:54:19.729Z,99932.13
2019-03-29T05:55:32.050Z,99934.33
2019-03-29T05:56:25.434Z,99936.16
2019-03-29T05:57:27.177Z,99933.63
2019-03-29T05:58:29.447Z,99931.38
2019-03-29T05:59:31.873Z,99923.64
2019-03-29T06:00:33.839Z,99927.50
2019-03-29T06:01:35.706Z,99931.61
2019-03-29T06:02:37.875Z,99925.67
2019-03-29T06:03:39.951Z,99925.92
2019-03-29T06:04:42.071Z,99924.36
2019-03-29T06:05:44.199Z,99924.70
2019-03-29T06:06:46.186Z,99917.75
2019-03-29T06:07:48.348Z,99914.39
2019-03-29T06:08:50.763Z,99923.60
2019-03-29T06:09:52.745Z,99926.75
2019-03-29T06:10:54.719Z,99925.05
2019-03-29T06:11:57.075Z,99922.18
2019-03-29T06:12:59.909Z,99922.91
2019-03-29T06:14:04.049Z,99923.88
2019-03-29T06:15:06.642Z,99922.40
2019-03-29T06:16:08.742Z,99922.27
2019-03-29T06:17:10.756Z,99928.42
2019-03-29T06:18:13.813Z,99922.50
2019-03-29T06:19:16.122Z,99922.16
2019-03-29T06:20:18.295Z,99917.83
2019-03-29T06:21:19.995Z,99926.13
2019-03-29T06:22:21.802Z,99921.64
2019-03-29T06:23:23.963Z,99919.50
2019-03-29T06:24:25.985Z,99918.53
2019-03-29T06:25:28.147Z,99918.88
2019-03-29T06:26:30.339Z,99921.88
2019-03-29T06:27:32.357Z,99915.02
2019-03-29T06:28:34.260Z,99913.35
2019-03-29T06:29:36.280Z,99909.03
2019-03-29T06:30:39.506Z,99916.34
2019-03-29T06:31:43.812Z,99914.55
2019-03-29T06:32:45.938Z,99917.67
2019-03-29T06:33:47.708Z,99920.20
2019-03-29T06:34:49.919Z,99925.02
2019-03-29T06:35:55.156Z,99922.40
2019-03-29T06:36:58.128Z,99929.53
2019-03-29T06:38:02.412Z,99931.77
2019-03-29T06:39:05.601Z,99931.14
2019-03-29T06:40:13.181Z,99925.50
2019-03-29T06:41:15.150Z,99921.88
2019-03-29T06:42:16.842Z,99922.25
2019-03-29T06:43:18.558Z,99920.93
2019-03-29T06:44:20.749Z,99920.93
2019-03-29T06:45:22.888Z,99915.25
2019-03-29T06:46:24.990Z,99916.20
2019-03-29T06:47:27.071Z,99916.09
2019-03-29T06:48:29.153Z,99913.33
2019-03-29T06:49:31.139Z,99916.08
2019-03-29T06:50:33.607Z,99909.45
2019-03-29T06:51:36.013Z,99911.27
2019-03-29T06:52:38.255Z,99900.99
2019-03-29T06:53:40.743Z,99903.99
2019-03-29T06:54:42.954Z,99891.94
2019-03-29T06:55:45.027Z,99891.59
2019-03-29T06:56:47.123Z,99894.25
2019-03-29T06:57:48.992Z,99889.29
2019-03-29T06:58:51.225Z,99896.27
2019-03-29T06:59:53.351Z,99898.09
2019-03-29T07:00:55.543Z,99894.69
2019-03-29T07:01:57.656Z,99895.03
2019-03-29T07:02:59.920Z,99900.69
2019-03-29T07:04:01.590Z,99900.69
2019-03-29T07:05:05.273Z,99905.20
2019-03-29T07:06:07.169Z,99898.06
2019-03-29T07:07:10.571Z,99898.56
2019-03-29T07:08:12.711Z,99906.17
2019-03-29T07:09:14.870Z,99907.43
2019-03-29T07:10:16.531Z,99904.84
2019-03-29T07:11:18.901Z,99903.36
2019-03-29T07:12:21.926Z,99904.91
2019-03-29T07:13:24.098Z,99910.78
2019-03-29T07:14:26.190Z,99900.68
2019-03-29T07:15:28.294Z,99901.87
2019-03-29T07:16:30.524Z,99908.09
2019-03-29T07:17:33.306Z,99900.14
2019-03-29T07:18:35.253Z,99906.08
2019-03-29T07:19:37.212Z,99906.64
2019-03-29T07:20:39.981Z,99906.42
2019-03-29T07:21:41.985Z,99914.72
2019-03-29T07:22:44.460Z,99913.74
2019-03-29T07:23:46.599Z,99921.98
2019-03-29T07:24:48.430Z,99923.37
2019-03-29T07:25:50.816Z,99927.13
2019-03-29T07:26:52.812Z,99925.04
2019-03-29T07:27:56.256Z,99929.52
2019-03-29T07:28:59.974Z,99929.39
2019-03-29T07:30:04.618Z,99920.02
2019-03-29T07:31:08.029Z,99929.39
2019-03-29T07:32:11.312Z,99924.09
2019-03-29T07:33:13.432Z,99920.02
2019-03-29T07:34:15.229Z,99918.67
2019-03-29T07:35:17.406Z,99916.14
2019-03-29T07:36:19.867Z,99911.38
2019-03-29T07:37:22.211Z,99914.03
2019-03-29T07:38:24.167Z,99922.80
2019-03-29T07:39:26.360Z,99920.55
2019-03-29T07:40:28.576Z,99926.80
2019-03-29T07:41:32.402Z,99927.47
2019-03-29T07:42:34.680Z,99928.80
2019-03-29T07:43:36.867Z,99929.39
2019-03-29T07:44:38.869Z,99932.67
2019-03-29T07:45:40.653Z,99938.95
2019-03-29T07:46:42.302Z,99946.31
2019-03-29T07:47:44.359Z,99943.78
2019-03-29T07:48:46.507Z,99945.37
2019-03-29T07:49:48.243Z,99946.13
2019-03-29T07:50:50.345Z,99949.00
2019-03-29T07:51:52.327Z,99952.31
2019-03-29T07:52:54.352Z,99950.55
2019-03-29T07:53:56.683Z,99954.52
2019-03-29T07:54:58.637Z,99955.59
2019-03-29T07:56:00.770Z,99952.72
2019-03-29T07:57:02.866Z,99949.53
2019-03-29T07:58:04.712Z,99947.67
2019-03-29T07:59:06.918Z,99953.95
2019-03-29T08:00:09.569Z,99944.20
2019-03-29T08:01:11.389Z,99948.02
2019-03-29T08:02:13.597Z,99948.74
2019-03-29T08:03:15.405Z,99949.88
2019-03-29T08:04:17.220Z,99944.92
2019-03-29T08:05:19.209Z,99946.00
2019-03-29T08:06:21.325Z,99940.79
2019-03-29T08:07:27.517Z,99945.23
2019-03-29T08:08:32.315Z,99939.27
2019-03-29T08:09:31.516Z,99934.66
2019-03-29T08:10:33.776Z,99940.61
2019-03-29T08:11:46.141Z,99939.42
2019-03-29T08:12:41.382Z,99943.91
2019-03-29T08:13:43.524Z,99937.08
2019-03-29T08:14:45.641Z,99934.55
2019-03-29T08:15:47.473Z,99930.42
2019-03-29T08:16:49.570Z,99930.20
2019-03-29T08:17:53.183Z,99926.79
2019-03-29T08:18:54.986Z,99926.48
2019-03-29T08:20:24.503Z,99928.22
2019-03-29T08:21:01.330Z,99933.33
2019-03-29T08:22:03.410Z,99933.49
2019-03-29T08:23:05.674Z,99932.64
2019-03-29T08:24:07.814Z,99932.42
2019-03-29T08:25:09.714Z,99933.56
2019-03-29T08:26:12.074Z,99930.02
2019-03-29T08:27:13.891Z,99930.02
2019-03-29T08:28:16.087Z,99929.12
2019-03-29T08:29:18.090Z,99924.63
2019-03-29T08:30:20.068Z,99926.94
2019-03-29T08:31:22.062Z,99920.05
2019-03-29T08:32:24.677Z,99925.96
2019-03-29T08:33:26.629Z,99926.48
2019-03-29T08:34:29.451Z,99932.08
2019-03-29T08:35:31.529Z,99926.98
2019-03-29T08:36:33.656Z,99923.95
2019-03-29T08:37:36.821Z,99930.67
2019-03-29T08:38:38.953Z,99926.14
2019-03-29T08:39:40.666Z,99924.25
2019-03-29T08:40:45.221Z,99923.34
2019-03-29T08:41:59.518Z,99925.15
2019-03-29T08:42:50.314Z,99931.36
2019-03-29T08:43:52.512Z,99935.77
2019-03-29T08:44:54.581Z,99932.34
2019-03-29T08:45:57.706Z,99936.61
2019-03-29T08:47:00.481Z,99937.34
2019-03-29T08:48:02.831Z,99942.66
2019-03-29T08:49:04.925Z,99948.05
2019-03-29T08:50:07.531Z,99946.72
2019-03-29T08:51:10.576Z,99947.62
2019-03-29T08:52:12.945Z,99948.59
2019-03-29T08:53:14.981Z,99952.31
2019-03-29T08:54:16.690Z,99953.39
2019-03-29T08:55:18.759Z,99957.36
2019-03-29T08:56:21.042Z,99952.44
2019-03-29T08:57:22.835Z,99952.15
2019-03-29T08:58:24.988Z,99949.92
2019-03-29T08:59:27.412Z,99948.94
2019-03-29T09:00:30.711Z,99955.53
2019-03-29T09:01:33.124Z,99957.34
2019-03-29T09:02:35.783Z,99953.56
2019-03-29T09:03:38.030Z,99949.19
2019-03-29T09:04:40.478Z,99952.56
2019-03-29T09:05:42.651Z,99952.86
2019-03-29T09:06:53.348Z,99953.30
2019-03-29T09:07:49.679Z,99944.61
2019-03-29T09:08:52.042Z,99942.05
2019-03-29T09:09:54.140Z,99934.21
2019-03-29T09:10:57.098Z,99930.11
2019-03-29T09:12:13.399Z,99925.09
2019-03-29T09:13:04.630Z,99920.95
2019-03-29T09:14:07.278Z,99917.40
2019-03-29T09:15:09.260Z,99918.09
2019-03-29T09:16:11.002Z,99919.11
2019-03-29T09:17:13.244Z,99915.30
2019-03-29T09:18:15.026Z,99922.75
2019-03-29T09:19:16.934Z,99918.65
2019-03-29T09:20:19.079Z,99918.05
2019-03-29T09:21:21.420Z,99918.52
2019-03-29T09:22:23.555Z,99913.33
2019-03-29T09:23:25.775Z,99911.44
2019-03-29T09:24:27.906Z,99915.94
2019-03-29T09:25:30.124Z,99908.89
2019-03-29T09:26:32.118Z,99897.16
2019-03-29T09:27:34.335Z,99894.89
2019-03-29T09:28:36.277Z,99891.97
2019-03-29T09:29:38.311Z,99891.20
2019-03-29T09:30:39.966Z,99889.83
2019-03-29T09:31:42.155Z,99873.77
2019-03-29T09:32:44.741Z,99872.02
2019-03-29T09:33:48.174Z,99861.04
2019-03-29T09:34:50.319Z,99868.57
2019-03-29T09:35:53.705Z,99864.83
2019-03-29T09:36:59.910Z,99849.73
2019-03-29T09:38:01.665Z,99842.63
2019-03-29T09:39:05.625Z,99842.81
2019-03-29T09:40:08.714Z,99835.70
2019-03-29T09:41:11.029Z,99844.88
2019-03-29T09:42:13.191Z,99845.34
2019-03-29T09:43:15.517Z,99842.00
2019-03-29T09:44:17.511Z,99843.16
2019-03-29T09:45:20.795Z,99834.39
2019-03-29T09:46:23.343Z,99836.05
2019-03-29T09:47:25.475Z,99830.61
2019-03-29T09:48:27.716Z,99839.33
2019-03-29T09:49:30.011Z,99829.61
2019-03-29T09:50:32.396Z,99842.41
2019-03-29T09:51:36.179Z,99842.25
2019-03-29T09:52:38.426Z,99849.92
2019-03-29T09:53:41.344Z,99852.06
2019-03-29T09:54:43.494Z,99854.27
2019-03-29T09:55:46.244Z,99858.55
2019-03-29T09:56:48.654Z,99863.70
2019-03-29T09:57:50.754Z,99872.20
2019-03-29T09:58:52.954Z,99871.14
2019-03-29T09:59:55.172Z,99872.86
2019-03-29T10:00:57.319Z,99861.34
2019-03-29T10:01:59.543Z,99869.77
2019-03-29T10:03:01.614Z,99864.03
2019-03-29T10:04:03.595Z,99870.19
2019-03-29T10:05:06.296Z,99860.23
2019-03-29T10:06:08.558Z,99868.75
2019-03-29T10:07:10.710Z,99868.52
2019-03-29T10:08:12.761Z,99863.94
2019-03-29T10:09:14.486Z,99868.33
2019-03-29T10:10:16.737Z,99859.61
2019-03-29T10:11:21.929Z,99861.28
2019-03-29T10:12:22.990Z,99871.23
2019-03-29T10:13:25.043Z,99870.98
2019-03-29T10:14:27.380Z,99870.43
2019-03-29T10:15:29.173Z,99866.38
2019-03-29T10:16:31.352Z,99866.00
2019-03-29T10:17:33.443Z,99877.28
2019-03-29T10:18:35.536Z,99862.48
2019-03-29T10:19:37.211Z,99865.77
2019-03-29T10:20:39.402Z,99852.09
2019-03-29T10:21:41.585Z,99853.30
2019-03-29T10:22:43.775Z,99857.19
2019-03-29T10:23:45.913Z,99851.40
2019-03-29T10:24:47.716Z,99838.96
2019-03-29T10:25:49.844Z,99845.36
2019-03-29T10:26:51.967Z,99846.42
2019-03-29T10:27:54.949Z,99841.18
2019-03-29T10:28:57.096Z,99846.78
2019-03-29T10:29:59.412Z,99838.39
2019-03-29T10:31:01.058Z,99845.16
2019-03-29T10:32:08.977Z,99839.05
2019-03-29T10:33:09.001Z,99836.62
2019-03-29T10:34:10.707Z,99833.41
2019-03-29T10:35:12.991Z,99833.50
2019-03-29T10:36:14.987Z,99836.06
2019-03-29T10:37:16.973Z,99834.81
2019-03-29T10:38:19.160Z,99835.37
2019-03-29T10:39:20.913Z,99837.21
2019-03-29T10:40:23.121Z,99835.55
2019-03-29T10:41:25.374Z,99832.42
2019-03-29T10:42:27.439Z,99837.30
2019-03-29T10:43:29.631Z,99835.89
2019-03-29T10:44:31.855Z,99832.30
2019-03-29T10:45:39.470Z,99832.22
2019-03-29T10:46:38.630Z,99815.22
2019-03-29T10:47:43.949Z,99827.29
2019-03-29T10:48:44.877Z,99823.70
2019-03-29T10:49:46.682Z,99823.31
2019-03-29T10:50:49.202Z,99824.00
2019-03-29T10:51:51.078Z,99834.27
2019-03-29T10:52:53.453Z,99834.95
2019-03-29T10:53:56.942Z,99832.22
2019-03-29T10:54:58.641Z,99836.70
2019-03-29T10:56:00.766Z,99830.33
2019-03-29T10:57:03.247Z,99827.11
2019-03-29T10:58:05.031Z,99832.54
2019-03-29T10:59:07.548Z,99830.81
2019-03-29T11:00:12.764Z,99820.34
2019-03-29T11:01:15.023Z,99825.30
2019-03-29T11:02:17.196Z,99818.53
2019-03-29T11:03:19.012Z,99824.39
2019-03-29T11:04:21.244Z,99816.85
2019-03-29T11:05:23.752Z,99814.88
2019-03-29T11:06:26.636Z,99830.31
2019-03-29T11:07:29.733Z,99834.80
2019-03-29T11:08:32.297Z,99827.52
2019-03-29T11:09:36.986Z,99819.63
2019-03-29T11:10:39.020Z,99813.63
2019-03-29T11:11:40.984Z,99813.48
2019-03-29T11:12:43.014Z,99813.63
2019-03-29T11:13:45.767Z,99810.86
2019-03-29T11:14:47.846Z,99807.27
2019-03-29T11:15:49.528Z,99796.98
2019-03-29T11:16:52.560Z,99800.84
2019-03-29T11:17:54.706Z,99802.67
2019-03-29T11:18:56.898Z,99793.86
2019-03-29T11:19:59.133Z,99803.25
2019-03-29T11:21:01.291Z,99801.58
2019-03-29T11:22:03.362Z,99789.60
2019-03-29T11:23:06.563Z,99789.77
2019-03-29T11:24:09.306Z,99774.89
2019-03-29T11:25:11.784Z,99789.09
2019-03-29T11:26:13.968Z,99787.62
2019-03-29T11:27:15.965Z,99784.39
2019-03-29T11:28:18.256Z,99780.55
2019-03-29T11:29:20.621Z,99789.30
2019-03-29T11:30:22.819Z,99783.95
2019-03-29T11:31:25.626Z,99789.39
2019-03-29T11:32:27.770Z,99788.55
2019-03-29T11:33:30.251Z,99795.73
2019-03-29T11:34:32.376Z,99793.10
2019-03-29T11:35:34.770Z,99788.89
2019-03-29T11:36:36.943Z,99783.58
2019-03-29T11:37:39.181Z,99782.89
2019-03-29T11:38:41.340Z,99785.78
2019-03-29T11:39:43.287Z,99785.24
2019-03-29T11:40:45.558Z,99783.30
2019-03-29T11:41:47.580Z,99783.54
2019-03-29T11:42:51.372Z,99779.19
2019-03-29T11:43:53.663Z,99780.72
2019-03-29T11:44:55.699Z,99788.68
2019-03-29T11:45:58.776Z,99780.98
2019-03-29T11:47:01.073Z,99782.14
2019-03-29T11:48:08.889Z,99788.03
2019-03-29T11:49:07.703Z,99777.12
2019-03-29T11:50:10.181Z,99786.36
2019-03-29T11:51:19.344Z,99793.00
2019-03-29T11:52:16.368Z,99791.64
2019-03-29T11:53:18.481Z,99787.28
2019-03-29T11:54:20.754Z,99788.27
2019-03-29T11:55:23.002Z,99791.50
2019-03-29T11:56:25.440Z,99789.13
2019-03-29T11:57:27.718Z,99786.40
2019-03-29T11:58:30.012Z,99784.49
2019-03-29T11:59:32.139Z,99790.69
2019-03-29T12:00:36.061Z,99791.13
2019-03-29T12:01:38.154Z,99793.55
2019-03-29T12:02:40.899Z,99789.17
2019-03-29T12:03:44.152Z,99792.40
2019-03-29T12:04:46.025Z,99792.59
2019-03-29T12:05:48.887Z,99794.30
2019-03-29T12:06:50.881Z,99793.36
2019-03-29T12:07:54.552Z,99796.65
2019-03-29T12:08:57.252Z,99784.03
2019-03-29T12:10:00.390Z,99784.52
2019-03-29T12:11:04.022Z,99779.13
2019-03-29T12:12:06.609Z,99778.14
2019-03-29T12:13:09.363Z,99781.22